createdAt,value
2019-03-05T00:01:54.025Z,2.72
2019-03-05T00:04:22.256Z,2.20
2019-03-05T00:06:50.476Z,2.80
2019-03-05T00:09:20.335Z,1.98
2019-03-05T00:11:50.318Z,3.27
2019-03-05T00:14:18.949Z,2.55
2019-03-05T00:16:47.243Z,2.98
2019-03-05T00:19:15.458Z,2.92
2019-03-05T00:21:43.696Z,2.58
2019-03-05T00:24:48.816Z,2.33
2019-03-05T00:27:17.039Z,2.65
2019-03-05T00:29:48.516Z,2.80
2019-03-05T00:32:16.729Z,3.20
2019-03-05T00:34:53.740Z,4.15
2019-03-05T00:37:27.874Z,3.12
2019-03-05T00:40:17.230Z,3.05
2019-03-05T00:43:26.071Z,2.98
2019-03-05T00:46:09.622Z,2.90
2019-03-05T00:48:55.861Z,3.15
2019-03-05T00:51:53.107Z,2.22
2019-03-05T00:54:41.334Z,2.40
2019-03-05T00:57:12.826Z,2.12
2019-03-05T00:59:55.902Z,1.90
2019-03-05T01:02:46.745Z,2.70
2019-03-05T01:05:45.413Z,2.65
2019-03-05T01:08:13.634Z,1.30
2019-03-05T01:10:42.183Z,1.10
2019-03-05T01:13:10.649Z,1.30
2019-03-05T01:15:38.864Z,1.00
2019-03-05T01:18:07.097Z,1.25
2019-03-05T01:20:35.316Z,1.02
2019-03-05T01:23:03.583Z,1.60
2019-03-05T01:25:34.891Z,0.98
2019-03-05T01:28:03.129Z,2.08
2019-03-05T01:30:55.526Z,3.05
2019-03-05T01:33:25.424Z,2.27
2019-03-05T01:36:01.289Z,2.30
2019-03-05T01:38:31.141Z,2.02
2019-03-05T01:41:01.022Z,2.55
2019-03-05T01:43:29.238Z,2.15
2019-03-05T01:45:57.517Z,2.37
2019-03-05T01:48:25.720Z,2.40
2019-03-05T01:50:53.942Z,2.42
2019-03-05T01:53:22.163Z,2.22
2019-03-05T01:55:50.369Z,1.87
2019-03-05T01:58:18.592Z,1.52
2019-03-05T02:00:46.806Z,1.40
2019-03-05T02:03:15.046Z,1.10
2019-03-05T02:05:43.278Z,1.10
2019-03-05T02:08:11.512Z,1.72
2019-03-05T02:10:39.733Z,0.98
2019-03-05T02:13:07.946Z,0.90
2019-03-05T02:15:36.161Z,1.00
2019-03-05T02:18:04.401Z,1.17
2019-03-05T02:20:32.620Z,0.88
2019-03-05T02:23:07.035Z,1.00
2019-03-05T02:25:44.315Z,1.20
2019-03-05T02:28:38.649Z,1.15
2019-03-05T02:31:29.568Z,1.12
2019-03-05T02:34:06.856Z,1.22
2019-03-05T02:36:44.036Z,1.37
2019-03-05T02:39:27.510Z,1.42
2019-03-05T02:42:04.822Z,1.25
2019-03-05T02:44:54.395Z,1.55
2019-03-05T02:47:29.571Z,1.40
2019-03-05T02:50:12.386Z,1.60
2019-03-05T02:52:46.925Z,1.87
2019-03-05T02:55:27.543Z,1.52
2019-03-05T02:57:54.858Z,1.98
2019-03-05T03:00:24.728Z,2.02
2019-03-05T03:02:57.518Z,1.82
2019-03-05T03:05:27.394Z,2.00
2019-03-05T03:07:55.615Z,1.70
2019-03-05T03:10:23.843Z,1.90
2019-03-05T03:12:52.308Z,2.05
2019-03-05T03:15:20.546Z,1.82
2019-03-05T03:17:48.791Z,2.47
2019-03-05T03:20:17.154Z,2.05
2019-03-05T03:22:45.475Z,1.80
2019-03-05T03:25:16.157Z,1.60
2019-03-05T03:27:44.369Z,1.90
2019-03-05T03:30:15.103Z,1.92
2019-03-05T03:32:43.311Z,1.92
2019-03-05T03:35:13.291Z,1.40
2019-03-05T03:37:41.493Z,2.25
2019-03-05T03:40:12.472Z,1.80
2019-03-05T03:42:40.686Z,1.42
2019-03-05T03:45:14.288Z,1.67
2019-03-05T03:47:42.667Z,2.10
2019-03-05T03:50:10.970Z,1.67
2019-03-05T03:52:39.167Z,2.60
2019-03-05T03:55:10.245Z,2.75
2019-03-05T03:57:38.475Z,2.00
2019-03-05T04:00:12.653Z,1.80
2019-03-05T04:02:40.875Z,2.17
2019-03-05T04:05:09.107Z,2.55
2019-03-05T04:07:37.327Z,1.72
2019-03-05T04:10:10.902Z,2.33
2019-03-05T04:12:39.467Z,3.00
2019-03-05T04:15:11.629Z,3.95
2019-03-05T04:17:40.242Z,3.47
2019-03-05T04:20:10.805Z,3.02
2019-03-05T04:22:39.025Z,3.85
2019-03-05T04:25:09.023Z,3.35
2019-03-05T04:27:37.243Z,3.87
2019-03-05T04:30:11.686Z,3.55
2019-03-05T04:32:39.936Z,4.37
2019-03-05T04:35:11.041Z,3.40
2019-03-05T04:37:39.262Z,4.05
2019-03-05T04:40:11.386Z,3.90
2019-03-05T04:42:39.611Z,4.10
2019-03-05T04:45:28.664Z,4.12
2019-03-05T04:47:56.880Z,3.50
2019-03-05T04:50:26.745Z,4.08
2019-03-05T04:52:54.985Z,5.20
2019-03-05T04:55:23.213Z,3.72
2019-03-05T04:57:51.434Z,3.77
2019-03-05T05:00:19.997Z,3.17
2019-03-05T05:02:48.490Z,3.20
2019-03-05T05:05:16.972Z,3.20
2019-03-05T05:07:45.209Z,3.55
2019-03-05T05:10:13.450Z,3.60
2019-03-05T05:12:41.676Z,4.42
2019-03-05T05:15:32.937Z,4.55
2019-03-05T05:18:01.159Z,3.95
2019-03-05T05:20:29.371Z,4.42
2019-03-05T05:22:57.597Z,4.20
2019-03-05T05:25:25.809Z,4.22
2019-03-05T05:27:54.030Z,4.08
2019-03-05T05:30:41.634Z,3.08
2019-03-05T05:33:09.862Z,2.70
2019-03-05T05:35:38.107Z,2.87
2019-03-05T05:38:06.490Z,2.70
2019-03-05T05:40:39.666Z,3.58
2019-03-05T05:43:13.404Z,2.50
2019-03-05T05:45:43.763Z,2.52
2019-03-05T05:48:11.979Z,2.80
2019-03-05T05:50:40.177Z,3.30
2019-03-05T05:53:08.782Z,3.55
2019-03-05T05:55:37.008Z,2.10
2019-03-05T05:58:05.258Z,3.00
2019-03-05T06:00:35.162Z,3.02
2019-03-05T06:03:03.397Z,3.10
2019-03-05T06:05:31.614Z,2.98
2019-03-05T06:07:59.839Z,3.27
2019-03-05T06:10:28.078Z,2.40
2019-03-05T06:12:56.301Z,3.30
2019-03-05T06:15:24.517Z,3.00
2019-03-05T06:17:52.741Z,2.75
2019-03-05T06:20:21.143Z,2.00
2019-03-05T06:22:49.631Z,2.40
2019-03-05T06:25:17.850Z,1.70
2019-03-05T06:27:46.140Z,3.02
2019-03-05T06:30:21.728Z,2.20
2019-03-05T06:32:49.988Z,2.70
2019-03-05T06:35:18.231Z,2.75
2019-03-05T06:37:46.459Z,3.17
2019-03-05T06:40:25.815Z,3.65
2019-03-05T06:42:54.019Z,3.70
2019-03-05T06:45:28.472Z,3.05
2019-03-05T06:47:56.682Z,2.80
2019-03-05T06:50:26.231Z,3.15
2019-03-05T06:52:54.456Z,2.98
2019-03-05T06:55:23.003Z,2.72
2019-03-05T06:57:51.215Z,2.47
2019-03-05T07:00:38.733Z,2.15
2019-03-05T07:03:08.578Z,2.02
2019-03-05T07:06:13.969Z,1.92
2019-03-05T07:08:45.448Z,1.40
2019-03-05T07:11:17.004Z,2.02
2019-03-05T07:13:46.937Z,2.05
2019-03-05T07:16:30.727Z,2.25
2019-03-05T07:19:00.375Z,2.08
2019-03-05T07:21:57.577Z,2.17
2019-03-05T07:24:45.319Z,2.27
2019-03-05T07:27:15.714Z,2.02
2019-03-05T07:29:43.934Z,2.10
2019-03-05T07:32:12.147Z,1.90
2019-03-05T07:34:42.033Z,2.12
2019-03-05T07:37:11.129Z,2.20
2019-03-05T07:39:39.334Z,2.40
2019-03-05T07:42:07.574Z,3.10
2019-03-05T07:44:36.134Z,4.50
2019-03-05T07:47:04.441Z,4.60
2019-03-05T07:49:43.225Z,4.03
2019-03-05T07:52:02.593Z,5.10
2019-03-05T07:54:30.824Z,4.87
2019-03-05T07:56:59.023Z,5.28
2019-03-05T07:59:30.125Z,5.45
2019-03-05T08:01:58.489Z,5.97
2019-03-05T08:04:26.842Z,6.30
2019-03-05T08:06:55.375Z,6.28
2019-03-05T08:09:34.847Z,7.30
2019-03-05T08:12:18.636Z,5.58
2019-03-05T08:14:53.043Z,7.87
2019-03-05T08:17:21.751Z,7.28
2019-03-05T08:19:49.981Z,7.92
2019-03-05T08:22:18.213Z,7.42
2019-03-05T08:24:46.447Z,8.15
2019-03-05T08:27:14.662Z,7.30
2019-03-05T08:29:42.897Z,7.08
2019-03-05T08:32:11.113Z,7.95
2019-03-05T08:34:39.354Z,5.45
2019-03-05T08:37:07.577Z,6.55
2019-03-05T08:39:35.786Z,5.22
2019-03-05T08:42:04.080Z,5.17
2019-03-05T08:44:32.289Z,4.83
2019-03-05T08:47:00.698Z,2.33
2019-03-05T08:49:28.912Z,2.40
2019-03-05T08:51:57.135Z,1.80
2019-03-05T08:54:25.357Z,1.90
2019-03-05T08:56:53.598Z,1.87
2019-03-05T08:59:21.839Z,1.70
2019-03-05T09:01:50.099Z,1.87
2019-03-05T09:04:18.366Z,1.72
2019-03-05T09:06:46.627Z,1.92
2019-03-05T09:09:15.851Z,2.20
2019-03-05T09:11:44.063Z,2.50
2019-03-05T09:14:12.286Z,2.27
2019-03-05T09:16:40.813Z,2.30
2019-03-05T09:19:09.039Z,2.20
2019-03-05T09:21:37.255Z,2.20
2019-03-05T09:24:05.465Z,2.40
2019-03-05T09:26:33.736Z,2.55
2019-03-05T09:29:01.977Z,2.90
2019-03-05T09:31:30.199Z,3.02
2019-03-05T09:33:58.417Z,2.30
2019-03-05T09:36:51.034Z,2.45
2019-03-05T09:39:16.063Z,3.00
2019-03-05T09:41:44.282Z,2.80
2019-03-05T09:44:12.505Z,2.80
2019-03-05T09:46:40.724Z,3.00
2019-03-05T09:49:08.960Z,2.87
2019-03-05T09:51:37.174Z,2.60
2019-03-05T09:54:05.394Z,2.70
2019-03-05T09:56:33.637Z,2.62
2019-03-05T09:59:01.862Z,2.98
2019-03-05T10:01:30.346Z,2.70
2019-03-05T10:03:58.565Z,3.10
2019-03-05T10:06:26.809Z,2.75
2019-03-05T10:08:55.022Z,3.10
2019-03-05T10:11:23.292Z,3.05
2019-03-05T10:13:51.524Z,2.77
2019-03-05T10:16:19.755Z,2.85
2019-03-05T10:18:48.271Z,3.40
2019-03-05T10:21:16.522Z,3.20
2019-03-05T10:23:44.803Z,3.30
2019-03-05T10:26:13.051Z,3.00
2019-03-05T10:31:30.312Z,3.30
2019-03-05T10:33:58.524Z,2.98
2019-03-05T10:36:27.134Z,3.05
2019-03-05T10:38:57.599Z,2.62
2019-03-05T10:41:25.390Z,2.20
2019-03-05T10:43:53.695Z,2.72
2019-03-05T10:46:22.263Z,2.50
2019-03-05T10:48:50.864Z,2.62
2019-03-05T10:51:19.165Z,2.60
2019-03-05T10:53:47.404Z,2.75
2019-03-05T10:56:15.693Z,2.60
2019-03-05T10:58:43.911Z,2.45
2019-03-05T11:01:12.557Z,2.55
2019-03-05T11:03:40.769Z,2.60
2019-03-05T11:06:09.016Z,2.60
2019-03-05T11:08:37.243Z,2.72
2019-03-05T11:11:13.374Z,2.90
2019-03-05T11:13:35.406Z,3.08
2019-03-05T11:16:05.441Z,3.42
2019-03-05T11:18:33.730Z,2.50
2019-03-05T11:21:01.979Z,2.80
2019-03-05T11:23:30.249Z,3.15
2019-03-05T11:25:58.564Z,3.00
2019-03-05T11:28:26.789Z,3.00
2019-03-05T11:30:55.020Z,3.10
2019-03-05T11:33:23.253Z,3.45
2019-03-05T11:35:51.515Z,3.15
2019-03-05T11:38:19.968Z,3.27
2019-03-05T11:40:48.211Z,2.95
2019-03-05T11:43:17.390Z,3.05
2019-03-05T11:45:45.675Z,3.25
2019-03-05T11:48:14.432Z,2.95
2019-03-05T11:50:42.674Z,3.30
2019-03-05T11:53:10.906Z,2.90
2019-03-05T11:55:39.178Z,3.02
2019-03-05T11:58:07.475Z,2.77
2019-03-05T12:00:54.001Z,2.85
2019-03-05T12:03:22.372Z,3.12
2019-03-05T12:05:50.580Z,2.90
2019-03-05T12:08:19.151Z,2.42
2019-03-05T12:10:47.376Z,2.50
2019-03-05T12:13:15.683Z,2.72
2019-03-05T12:15:45.132Z,2.50
2019-03-05T12:18:13.736Z,2.65
2019-03-05T12:20:42.007Z,2.50
2019-03-05T12:23:11.685Z,2.40
2019-03-05T12:25:41.075Z,2.20
2019-03-05T12:28:10.884Z,2.25
2019-03-05T12:30:39.784Z,2.75
2019-03-05T12:33:08.093Z,1.98
2019-03-05T12:35:36.327Z,2.05
2019-03-05T12:38:04.716Z,2.37
2019-03-05T12:40:33.060Z,2.83
2019-03-05T12:43:01.328Z,2.45
2019-03-05T12:45:29.623Z,1.80
2019-03-05T12:47:57.895Z,2.15
2019-03-05T12:50:27.665Z,1.90
2019-03-05T12:52:56.632Z,1.90
2019-03-05T12:55:25.097Z,1.90
2019-03-05T12:57:53.343Z,1.92
2019-03-05T13:00:24.221Z,1.45
2019-03-05T13:02:52.483Z,1.77
2019-03-05T13:05:20.820Z,1.50
2019-03-05T13:07:52.590Z,1.12
2019-03-05T13:10:27.169Z,1.17
2019-03-05T13:12:55.382Z,1.40
2019-03-05T13:15:31.663Z,1.42
2019-03-05T13:17:59.999Z,1.20
2019-03-05T13:20:28.327Z,1.40
2019-03-05T13:22:56.634Z,1.60
2019-03-05T13:25:28.409Z,1.30
2019-03-05T13:27:57.550Z,1.40
2019-03-05T13:30:26.967Z,1.72
2019-03-05T13:32:59.046Z,1.30
2019-03-05T13:35:30.104Z,1.42
2019-03-05T13:37:58.815Z,1.52
2019-03-05T13:42:59.694Z,1.20
2019-03-05T13:45:28.161Z,1.10
2019-03-05T13:48:23.584Z,1.37
2019-03-05T13:51:09.734Z,1.00
2019-03-05T13:53:41.228Z,2.05
2019-03-05T13:56:33.095Z,1.52
2019-03-05T13:59:34.348Z,1.65
2019-03-05T14:02:02.554Z,1.20
2019-03-05T14:04:34.031Z,1.05
2019-03-05T14:07:27.782Z,1.20
2019-03-05T14:09:56.129Z,1.27
2019-03-05T14:12:24.494Z,0.93
2019-03-05T14:14:52.758Z,1.12
2019-03-05T14:17:22.414Z,0.90
2019-03-05T14:19:50.648Z,1.45
2019-03-05T14:22:18.846Z,1.30
2019-03-05T14:24:47.070Z,1.67
2019-03-05T14:27:15.294Z,1.40
2019-03-05T14:29:43.568Z,1.10
2019-03-05T14:32:11.803Z,0.95
2019-03-05T14:34:40.076Z,1.30
2019-03-05T14:37:08.348Z,0.88
2019-03-05T14:39:36.716Z,1.25
2019-03-05T14:42:06.618Z,1.30
2019-03-05T14:44:39.766Z,1.22
2019-03-05T14:47:05.739Z,1.10
2019-03-05T14:49:34.105Z,1.27
2019-03-05T14:52:02.760Z,1.27
2019-03-05T14:54:30.997Z,1.22
2019-03-05T14:56:59.366Z,1.05
2019-03-05T14:59:27.628Z,1.12
2019-03-05T15:01:55.936Z,1.10
2019-03-05T15:04:24.183Z,1.30
2019-03-05T15:06:52.734Z,1.27
2019-03-05T15:09:21.034Z,1.32
2019-03-05T15:11:49.339Z,1.10
2019-03-05T15:14:17.638Z,1.40
2019-03-05T15:16:45.938Z,1.30
2019-03-05T15:19:21.388Z,1.12
2019-03-05T15:21:44.488Z,1.20
2019-03-05T15:24:12.695Z,1.25
2019-03-05T15:26:40.907Z,1.65
2019-03-05T15:29:09.133Z,1.10
2019-03-05T15:31:37.448Z,1.00
2019-03-05T15:34:05.703Z,1.27
2019-03-05T15:36:34.045Z,1.20
2019-03-05T15:39:02.633Z,1.10
2019-03-05T15:41:31.072Z,0.98
2019-03-05T15:43:59.743Z,1.10
2019-03-05T15:46:28.041Z,1.30
2019-03-05T15:48:56.321Z,1.27
2019-03-05T15:51:24.675Z,1.10
2019-03-05T15:53:52.942Z,1.22
2019-03-05T15:56:21.212Z,0.95
2019-03-05T15:58:49.509Z,1.22
2019-03-05T16:01:22.197Z,1.10
2019-03-05T16:03:47.697Z,1.20
2019-03-05T16:06:15.931Z,1.12
2019-03-05T16:08:44.245Z,1.10
2019-03-05T16:11:12.457Z,1.07
2019-03-05T16:13:40.759Z,1.22
2019-03-05T16:16:09.094Z,1.17
2019-03-05T16:18:39.117Z,1.02
2019-03-05T16:21:07.639Z,1.20
2019-03-05T16:23:36.072Z,1.70
2019-03-05T16:26:04.496Z,1.60
2019-03-05T16:28:32.726Z,1.25
2019-03-05T16:31:02.870Z,1.22
2019-03-05T16:33:38.697Z,1.32
2019-03-05T16:36:08.705Z,1.32
2019-03-05T16:38:55.042Z,1.65
2019-03-05T16:41:42.133Z,0.93
2019-03-05T16:44:23.904Z,1.02
2019-03-05T16:47:05.788Z,1.42
2019-03-05T16:49:44.511Z,0.85
2019-03-05T16:52:14.727Z,1.40
2019-03-05T16:54:54.075Z,0.95
2019-03-05T16:57:24.237Z,1.25
2019-03-05T16:59:57.254Z,0.98
2019-03-05T17:02:39.243Z,1.20
2019-03-05T17:05:30.123Z,1.80
2019-03-05T17:08:27.945Z,1.20
2019-03-05T17:10:57.809Z,1.42
2019-03-05T17:13:26.054Z,1.10
2019-03-05T17:15:54.252Z,1.42
2019-03-05T17:18:22.506Z,1.50
2019-03-05T17:20:51.044Z,1.72
2019-03-05T17:23:19.271Z,1.35
2019-03-05T17:25:47.501Z,1.50
2019-03-05T17:28:15.705Z,1.62
2019-03-05T17:30:43.937Z,1.75
2019-03-05T17:33:12.143Z,1.30
2019-03-05T17:35:40.392Z,1.75
2019-03-05T17:38:08.637Z,1.72
2019-03-05T17:40:37.126Z,1.30
2019-03-05T17:43:05.364Z,1.60
2019-03-05T17:45:33.587Z,1.72
2019-03-05T17:48:01.799Z,1.77
2019-03-05T17:50:30.039Z,1.60
2019-03-05T17:52:58.289Z,2.22
2019-03-05T17:55:27.923Z,1.75
2019-03-05T17:57:56.233Z,1.55
2019-03-05T18:00:26.448Z,2.08
2019-03-05T18:02:54.822Z,1.70
2019-03-05T18:05:23.056Z,2.08
2019-03-05T18:07:51.566Z,2.17
2019-03-05T18:10:20.078Z,2.58
2019-03-05T18:12:48.290Z,2.20
2019-03-05T18:15:16.967Z,2.08
2019-03-05T18:17:45.518Z,1.82
2019-03-05T18:20:17.907Z,2.22
2019-03-05T18:22:46.379Z,1.90
2019-03-05T18:25:15.449Z,1.90
2019-03-05T18:27:43.662Z,1.77
2019-03-05T18:30:20.325Z,2.08
2019-03-05T18:32:48.610Z,1.65
2019-03-05T18:35:16.888Z,1.55
2019-03-05T18:37:45.362Z,2.60
2019-03-05T18:40:17.871Z,1.85
2019-03-05T18:42:46.096Z,1.67
2019-03-05T18:45:23.018Z,1.67
2019-03-05T18:47:51.219Z,1.82
2019-03-05T18:50:21.074Z,1.50
2019-03-05T18:52:51.145Z,1.65
2019-03-05T18:55:21.767Z,1.65
2019-03-05T18:57:50.059Z,1.72
2019-03-05T19:00:24.663Z,2.08
2019-03-05T19:02:55.092Z,1.60
2019-03-05T19:05:23.561Z,1.90
2019-03-05T19:07:52.156Z,1.70
2019-03-05T19:10:24.515Z,1.80
2019-03-05T19:12:52.722Z,2.20
2019-03-05T19:15:27.697Z,1.80
2019-03-05T19:17:55.914Z,1.47
2019-03-05T19:20:28.373Z,2.00
2019-03-05T19:22:56.737Z,2.25
2019-03-05T19:25:29.981Z,2.10
2019-03-05T19:27:58.496Z,2.30
2019-03-05T19:30:37.488Z,2.85
2019-03-05T19:33:05.756Z,3.10
2019-03-05T19:35:34.792Z,2.83
2019-03-05T19:38:03.032Z,2.72
2019-03-05T19:40:38.418Z,3.60
2019-03-05T19:43:06.984Z,4.78
2019-03-05T19:45:35.689Z,5.12
2019-03-05T19:48:04.566Z,4.42
2019-03-05T19:50:32.789Z,6.28
2019-03-05T19:53:01.206Z,6.75
2019-03-05T19:55:30.176Z,6.30
2019-03-05T19:58:15.059Z,4.03
2019-03-05T20:00:57.702Z,4.03
2019-03-05T20:03:26.369Z,3.02
2019-03-05T20:05:54.581Z,2.55
2019-03-05T20:08:22.826Z,2.22
2019-03-05T20:10:51.103Z,2.87
2019-03-05T20:13:19.330Z,3.35
2019-03-05T20:15:47.663Z,2.60
2019-03-05T20:18:15.888Z,2.92
2019-03-05T20:20:44.100Z,2.55
2019-03-05T20:23:12.331Z,2.67
2019-03-05T20:25:40.824Z,2.60
2019-03-05T20:28:09.090Z,2.35
2019-03-05T20:30:37.318Z,2.37
2019-03-05T20:33:05.864Z,2.45
2019-03-05T20:35:34.096Z,2.22
2019-03-05T20:38:03.987Z,2.70
2019-03-05T20:40:32.472Z,2.40
2019-03-05T20:43:02.681Z,2.58
2019-03-05T20:45:48.242Z,2.70
2019-03-05T20:48:16.750Z,1.75
2019-03-05T20:50:44.986Z,2.25
2019-03-05T20:53:13.213Z,2.10
2019-03-05T20:55:41.436Z,2.15
2019-03-05T20:58:09.750Z,2.45
2019-03-05T21:00:39.113Z,2.50
2019-03-05T21:03:09.838Z,2.42
2019-03-05T21:05:40.961Z,2.00
2019-03-05T21:08:09.230Z,2.72
2019-03-05T21:10:37.453Z,2.65
2019-03-05T21:13:05.685Z,2.35
2019-03-05T21:15:35.351Z,2.22
2019-03-05T21:18:06.367Z,3.05
2019-03-05T21:20:34.850Z,2.40
2019-03-05T21:23:03.070Z,2.30
2019-03-05T21:25:31.688Z,2.80
2019-03-05T21:27:59.915Z,2.80
2019-03-05T21:30:28.687Z,2.98
2019-03-05T21:32:56.922Z,2.40
2019-03-05T21:35:25.143Z,2.80
2019-03-05T21:37:53.638Z,2.72
2019-03-05T21:40:26.205Z,2.80
2019-03-05T21:42:54.511Z,3.20
2019-03-05T21:45:34.375Z,3.12
2019-03-05T21:48:02.920Z,3.00
2019-03-05T21:50:31.272Z,3.02
2019-03-05T21:52:59.581Z,3.55
2019-03-05T21:55:27.795Z,3.42
2019-03-05T21:57:56.071Z,3.50
2019-03-05T22:00:32.851Z,3.83
2019-03-05T22:03:01.918Z,3.50
2019-03-05T22:05:30.412Z,3.10
2019-03-05T22:07:58.673Z,3.65
2019-03-05T22:10:26.879Z,3.52
2019-03-05T22:12:55.107Z,3.42
2019-03-05T22:15:30.770Z,3.65
2019-03-05T22:17:58.986Z,3.20
2019-03-05T22:20:27.230Z,3.02
2019-03-05T22:22:55.445Z,3.17
2019-03-05T22:25:24.406Z,3.58
2019-03-05T22:27:52.616Z,3.47
2019-03-05T22:30:32.474Z,3.08
2019-03-05T22:33:00.683Z,3.40
2019-03-05T22:35:29.181Z,2.77
2019-03-05T22:37:57.396Z,3.37
2019-03-05T22:40:26.655Z,3.20
2019-03-05T22:42:54.933Z,3.42
2019-03-05T22:45:29.275Z,3.22
2019-03-05T22:47:57.546Z,3.35
2019-03-05T22:50:25.771Z,3.62
2019-03-05T22:52:54.004Z,4.03
2019-03-05T22:55:22.269Z,3.92
2019-03-05T22:57:50.542Z,3.33
2019-03-05T23:00:23.693Z,3.40
2019-03-05T23:02:51.929Z,3.45
2019-03-05T23:05:20.153Z,3.72
2019-03-05T23:07:48.365Z,3.70
2019-03-05T23:10:17.239Z,3.83
2019-03-05T23:12:45.721Z,3.67
2019-03-05T23:15:15.675Z,4.28
2019-03-05T23:17:43.881Z,4.53
2019-03-05T23:20:16.349Z,4.20
2019-03-05T23:22:44.924Z,4.60
2019-03-05T23:25:14.700Z,4.33
2019-03-05T23:27:42.903Z,4.65
2019-03-05T23:30:13.254Z,5.28
2019-03-05T23:32:41.470Z,5.60
2019-03-05T23:35:11.810Z,5.25
2019-03-05T23:37:40.466Z,5.28
2019-03-05T23:40:10.008Z,5.58
2019-03-05T23:42:38.223Z,5.90
2019-03-05T23:45:09.448Z,5.72
2019-03-05T23:47:37.910Z,5.35
2019-03-05T23:50:08.605Z,5.28
2019-03-05T23:52:36.875Z,6.83
2019-03-05T23:55:05.671Z,6.17
2019-03-05T23:57:33.959Z,5.72
